Aviation Digital Data Service (ADDS)

Output produced by METARs form (1109 UTC 19 June 2019)
found at http://www.aviationweather.gov/metar/data/
 
MRLB 190500Z 1906/2006 08013KT 9999 FEW040 TX33/1920Z TN23/1912Z 
     TEMPO 1908/1912 28007KT BKN040 
     TEMPO 1922/2002 BKN040
       
MROC 190500Z 1906/2006 09010KT 9999 FEW035 TX32/1919Z TN21/1911Z 
     BECMG 1918/1920 25010KT 
     TEMPO 1919/1923 TSRA FEW015CB BKN030 
     TEMPO 2000/2006 VRB03KT SCT030
       
MRLM 190500Z 1906/2006 27007KT 9999 SCT030 TX31/1918Z TN23/1911Z 
     FM191700 07007KT 9999 FEW030 
     TEMPO 1921/2002 DZ BKN020 
     FM200300 27007KT 9999 SCT030
       
MRPV 190500Z 1906/2006 10011KT 9999 FEW025 TX32/1917Z TN21/1910Z 
     TEMPO 1922/2001 SCT020TCU